ADDS METAR Data INFO
IDs: Format: Raw Decoded Include TAF

Data at: 0037 UTC 23 Oct 2017

PMDY 230027Z AUTO 02012G22KT 10SM FEW017 BKN033 OVC042 24/20 A3008 RMK AO2
PMDY 222356Z AUTO 02013G22KT 6SM HZ BKN019 OVC025 23/21 A3009 RMK AO2 RAE06 SLP188 P0001 60013 T02330206 10267 20222 50003
PMDY 222256Z AUTO 02011G18KT 5SM -RA BR FEW010 BKN016 OVC021 23/21 A3010 RMK AO2 RAB30 SLP191 P0002 T02280211
PMDY 222230Z AUTO 02013G18KT 6SM -RA BKN018 BKN024 OVC055 24/21 A3009 RMK AO2 RAB30 P0002
PMDY 222217Z AUTO 02010KT 10SM SCT018 OVC055 23/21 A3008 RMK AO2 P0001
PMDY 222156Z AUTO 02012G20KT 10SM SCT015 BKN022 OVC050 23/21 A3008 RMK AO2 RAB2059E48 SLP185 P0005 T02330206
PMDY 222122Z AUTO 01016G22KT 6SM -RA BR OVC011 23/21 A3009 RMK AO2 RAB2059 P0003
PMDY 222056Z AUTO 01014G20KT 10SM OVC009 23/22 A3008 RMK AO2 PK WND 27030/1959 WSHFT 2020 RAE43 CIG 006V012 SLP184 P0005 60005 T02280217 53014
PMDY 222024Z AUTO 34011G17KT 3SM -RA BR BKN007 BKN016 OVC050 24/23 A3006 RMK AO2 PK WND 27030/1959 CIG 004V012 P0002
PMDY 222015Z AUTO 29008G21KT 2SM +RA BR SCT008 BKN020 OVC050 24/23 A3006 RMK AO2 PK WND 27030/1959 CIG 015V030 P0001
PMDY 222012Z AUTO 28013G26KT 1 3/4SM RA BR BKN008 BKN017 OVC050 24/23 A3006 RMK AO2 PK WND 27030/1959 CIG 004V013 P0001
PMDY 222005Z AUTO 27019G30KT 2 1/2SM RA BR SCT008 BKN015 OVC095 24/22 A3005 RMK AO2 PK WND 27030/1959 VIS 1 1/2V5 P0000
PMDY 221956Z AUTO 25015KT 5SM -RA FEW015 SCT024 BKN041 27/23 A3004 RMK AO2 RAB54 SLP171 P0000 T02670233
PMDY 221954Z AUTO 25016G21KT 6SM -RA FEW021 SCT027 BKN038 27/23 A3004 RMK AO2 RAB54 P0000
PMDY 221937Z AUTO 25014KT 10SM SCT021 BKN027 27/23 A3004 RMK AO2
PMDY 221856Z AUTO 26011KT 10SM CLR 26/23 A3003 RMK AO2 SLP170 T02610233
PMDY 221756Z AUTO 25013KT 10SM FEW017 26/23 A3001 RMK AO2 SLP162 T02560228 10256 20250 53007
PMDY 221656Z AUTO 25012KT 10SM FEW017 26/23 A3000 RMK AO2 SLP158 T02560228
PMDY 221556Z AUTO 25014KT 10SM FEW017 26/23 A3000 RMK AO2 SLP157 T02560228
PMDY 221456Z AUTO 24012KT 10SM CLR 26/23 A2999 RMK AO2 SLP155 T02560228 58016
PMDY 221356Z AUTO 25012KT 10SM CLR 26/23 A3002 RMK AO2 SLP164 T02560228
PMDY 221256Z AUTO 25010KT 10SM CLR 26/23 A3003 RMK AO2 SLP168 T02560228
PMDY 221156Z AUTO 24010KT 10SM SCT017 26/23 A3004 RMK AO2 SLP171 T02560233 10261 20250 56010
PMDY 221056Z AUTO 23009KT 10SM CLR 26/23 A3004 RMK AO2 SLP171 T02560233 402780244
PMDY 220956Z AUTO 23008KT 10SM CLR 26/23 A3005 RMK AO2 SLP175 T02560228
PMDY 220856Z AUTO 24007KT 10SM CLR 26/23 A3007 RMK AO2 SLP181 T02560228 58000
PMDY 220756Z AUTO 24006KT 10SM CLR 26/23 A3007 RMK AO2 SLP182 T02560233
PMDY 220656Z AUTO 24005KT 9SM FEW016 26/23 A3007 RMK AO2 SLP182 T02560233
PMDY 220556Z AUTO 23006KT 10SM FEW020 26/23 A3007 RMK AO2 SLP181 T02610233 10278 20261 53006
PMDY 220456Z AUTO 24005KT 10SM CLR 27/23 A3006 RMK AO2 SLP178 T02670233
PMDY 220356Z AUTO 23007KT 10SM FEW013 27/23 A3005 RMK AO2 SLP175 T02720233
PMDY 220256Z AUTO 21004KT 10SM BKN015 BKN021 27/23 A3005 RMK AO2 SLP175 T02670233 55006
PMDY 220218Z AUTO 21006KT 10SM BKN016 27/23 A3005 RMK AO2
PMDY 220156Z AUTO 20006KT 10SM SCT018 28/23 A3005 RMK AO2 SLP174 T02780233
PMDY 220056Z AUTO 19006KT 10SM FEW015 28/23 A3005 RMK AO2 SLP176 T02780228
PMDY 212356Z AUTO 18007KT 10SM CLR 27/23 A3007 RMK AO2 SLP181 T02720233 10278 20250 58018
PMDY 212256Z AUTO 18007KT 10SM FEW015 SCT028 27/23 A3009 RMK AO2 SLP189 T02720228
PMDY 212156Z AUTO 17007KT 8SM SCT014 BKN023 27/23 A3010 RMK AO2 SLP194 T02720233
PMDY 212056Z AUTO 15005KT 4SM HZ FEW020 27/23 A3012 RMK AO2 SLP199 T02670228 50005
PMDY 211956Z AUTO 16005KT 7SM BKN016 26/22 A3013 RMK AO2 SLP202 T02610222
PMDY 211856Z AUTO 15005KT 4SM HZ BKN016 25/22 A3012 RMK AO2 SLP198 T02500222
PMDY 211756Z AUTO 15007KT 5SM HZ SCT016 SCT022 25/22 A3010 RMK AO2 SLP194 T02500222 10250 20244 58001
PMDY 211656Z AUTO 15005KT 7SM FEW018 25/22 A3011 RMK AO2 SLP196 T02500222
PMDY 211556Z AUTO 15004KT 9SM CLR 24/22 A3011 RMK AO2 SLP195 T02440222
PMDY 211456Z AUTO 15006KT 10SM CLR 25/22 A3011 RMK AO2 SLP195 T02500222 58014
PMDY 211356Z AUTO 17006KT 10SM FEW016 25/22 A3013 RMK AO2 SLP201 T02500217
PMDY 211256Z AUTO 14008KT 10SM SCT018 25/22 A3014 RMK AO2 SLP205 T02500222